Time;durP1;ratioP1;P1;durP2;ratioP2;P2;SDS_P1;SDS_P2;PMS_P1;PMS_P2;Temp;Humidity;BMP_temperature;BMP_pressure;BME280_temperature;BME280_humidity;BME280_pressure;Samples;Min_cycle;Max_cycle;Signal;HPM_P1;HPM_P2
2020/12/31 00:00:35;;;;;;;35.67;24.87;;;4.00;93.60;;;;;;4404795;32;20201;-65
2020/12/31 00:03:01;;;;;;;39.67;24.47;;;4.00;93.60;;;;;;4404019;32;20200;-63
2020/12/31 00:05:27;;;;;;;37.60;25.43;;;4.00;93.70;;;;;;4397502;32;20195;-63
2020/12/31 00:07:55;;;;;;;33.80;22.77;;;4.00;93.70;;;;;;4396968;32;20215;-64
2020/12/31 00:10:21;;;;;;;30.03;21.90;;;4.00;93.60;;;;;;4390499;32;20172;-64
2020/12/31 00:12:49;;;;;;;32.33;22.00;;;4.10;93.60;;;;;;4391811;32;20184;-64
2020/12/31 00:15:20;;;;;;;30.87;23.47;;;4.00;93.80;;;;;;4400985;32;20276;-63
2020/12/31 00:17:47;;;;;;;37.57;25.67;;;4.10;93.50;;;;;;4405094;32;20590;-64
2020/12/31 00:20:13;;;;;;;36.00;26.23;;;4.00;93.50;;;;;;4401926;32;20343;-63
2020/12/31 00:22:40;;;;;;;40.80;26.47;;;4.00;93.50;;;;;;4404965;32;20222;-64
2020/12/31 00:25:15;;;;;;;30.57;22.00;;;4.00;93.60;;;;;;4395193;32;20413;-64
2020/12/31 00:27:46;;;;;;;34.13;24.77;;;4.00;93.70;;;;;;4391331;32;20234;-67
2020/12/31 00:30:16;;;;;;;37.97;25.47;;;4.00;93.70;;;;;;4390689;32;20160;-65
2020/12/31 00:32:47;;;;;;;34.20;25.67;;;4.00;93.70;;;;;;4396284;32;20186;-65
2020/12/31 00:35:23;;;;;;;41.97;26.77;;;4.00;93.70;;;;;;4405415;32;20154;-67
2020/12/31 00:37:52;;;;;;;35.23;25.17;;;4.00;93.70;;;;;;4405356;32;20513;-67
2020/12/31 00:40:20;;;;;;;35.73;26.63;;;4.00;93.70;;;;;;4396049;32;20223;-66
2020/12/31 00:42:48;;;;;;;35.97;26.73;;;4.00;93.70;;;;;;4399648;32;20203;-66
2020/12/31 00:45:19;;;;;;;44.70;29.37;;;4.00;93.70;;;;;;4405840;32;20183;-65
2020/12/31 00:47:45;;;;;;;44.43;28.57;;;4.10;93.70;;;;;;4405584;32;20591;-67
2020/12/31 00:50:16;;;;;;;38.73;26.53;;;4.10;93.70;;;;;;4403392;32;20160;-64
2020/12/31 00:52:49;;;;;;;43.43;30.17;;;4.10;93.80;;;;;;4403462;32;20221;-64
2020/12/31 00:55:15;;;;;;;51.10;31.00;;;4.10;93.80;;;;;;4404575;32;20211;-64
2020/12/31 00:57:47;;;;;;;49.57;29.97;;;4.10;93.90;;;;;;4403806;32;20167;-68
2020/12/31 01:00:18;;;;;;;43.07;29.10;;;4.10;93.80;;;;;;4403025;32;20174;-67
2020/12/31 01:02:44;;;;;;;48.63;31.53;;;4.20;93.70;;;;;;4395726;32;20216;-64
2020/12/31 01:05:13;;;;;;;47.97;31.13;;;4.10;93.70;;;;;;4400410;32;20257;-67
2020/12/31 01:07:46;;;;;;;37.97;26.47;;;4.10;93.70;;;;;;4398263;32;20584;-64
2020/12/31 01:10:12;;;;;;;33.67;22.80;;;4.10;93.80;;;;;;4405237;32;20159;-65
2020/12/31 01:12:41;;;;;;;31.83;20.60;;;4.10;93.70;;;;;;4405607;32;20268;-64
2020/12/31 01:15:08;;;;;;;29.20;21.37;;;4.00;93.60;;;;;;4403211;32;20204;-67
2020/12/31 01:17:37;;;;;;;28.50;19.87;;;4.00;93.60;;;;;;4406039;32;20522;-68
2020/12/31 01:20:09;;;;;;;26.80;16.60;;;4.00;93.70;;;;;;4396202;32;20179;-66
2020/12/31 01:22:36;;;;;;;24.17;15.50;;;3.90;93.90;;;;;;4393355;32;20179;-66
2020/12/31 01:25:02;;;;;;;19.50;12.50;;;3.80;93.70;;;;;;4402109;32;20220;-67
2020/12/31 01:27:31;;;;;;;13.30;8.47;;;3.60;93.40;;;;;;4396859;32;20216;-63
2020/12/31 01:29:58;;;;;;;16.73;8.87;;;3.50;93.50;;;;;;4395212;32;20661;-67
2020/12/31 01:32:25;;;;;;;12.27;7.97;;;3.40;93.60;;;;;;4398308;32;20229;-67
2020/12/31 01:35:00;;;;;;;11.40;7.43;;;3.30;93.60;;;;;;4403724;32;20198;-64
2020/12/31 01:37:26;;;;;;;11.63;6.90;;;3.30;93.50;;;;;;4402969;32;20227;-63
2020/12/31 01:39:52;;;;;;;10.60;7.40;;;3.20;93.60;;;;;;4404020;32;20215;-67
2020/12/31 01:42:26;;;;;;;9.33;6.03;;;3.10;93.80;;;;;;4399860;32;20602;-69
2020/12/31 01:44:57;;;;;;;10.10;6.50;;;3.10;93.80;;;;;;4389415;32;20241;-65
2020/12/31 01:47:38;;;;;;;11.27;7.20;;;3.10;93.80;;;;;;4399817;32;20229;-67
2020/12/31 01:50:06;;;;;;;12.07;7.20;;;3.10;93.90;;;;;;4400053;32;20209;-65
2020/12/31 01:52:36;;;;;;;14.97;8.20;;;3.20;94.20;;;;;;4403427;32;20160;-65
2020/12/31 01:55:07;;;;;;;15.23;8.30;;;3.30;94.20;;;;;;4406141;32;20188;-65
2020/12/31 01:57:37;;;;;;;8.63;6.47;;;3.50;94.20;;;;;;4399977;32;20282;-67
2020/12/31 02:00:05;;;;;;;10.33;6.00;;;3.50;94.20;;;;;;4392161;32;20187;-64
2020/12/31 02:02:38;;;;;;;15.10;7.63;;;3.50;94.00;;;;;;4406084;32;20612;-66
2020/12/31 02:05:04;;;;;;;10.17;6.17;;;3.50;93.80;;;;;;4408601;32;20163;-65
2020/12/31 02:07:31;;;;;;;12.37;6.40;;;3.60;93.80;;;;;;4392817;32;20201;-65
2020/12/31 02:09:59;;;;;;;10.83;6.93;;;3.60;93.60;;;;;;4406229;32;20210;-64
2020/12/31 02:12:26;;;;;;;10.50;6.03;;;3.60;93.80;;;;;;4407354;32;20496;-66
2020/12/31 02:14:59;;;;;;;9.10;6.23;;;3.60;93.50;;;;;;4406549;32;20224;-64
2020/12/31 02:17:43;;;;;;;12.93;6.30;;;3.70;93.50;;;;;;4393716;32;20189;-67
2020/12/31 02:20:13;;;;;;;9.20;5.57;;;3.70;93.50;;;;;;4402502;32;20155;-64
2020/12/31 02:22:41;;;;;;;10.07;5.53;;;3.70;93.50;;;;;;4395938;32;20254;-66
2020/12/31 02:25:07;;;;;;;9.60;6.20;;;3.60;93.40;;;;;;4405481;32;20229;-65
2020/12/31 02:27:39;;;;;;;8.63;5.70;;;3.70;93.50;;;;;;4406493;32;20222;-65
2020/12/31 02:30:06;;;;;;;8.60;5.40;;;3.80;93.40;;;;;;4405593;32;20209;-65
2020/12/31 02:32:33;;;;;;;14.20;6.73;;;3.80;93.40;;;;;;4406499;32;20213;-67
2020/12/31 02:35:04;;;;;;;46.73;28.63;;;3.70;93.40;;;;;;4397942;32;20649;-65
2020/12/31 02:37:33;;;;;;;62.57;36.90;;;3.80;93.40;;;;;;4406251;32;20159;-66
2020/12/31 02:40:00;;;;;;;55.47;32.10;;;3.80;93.30;;;;;;4404585;32;20608;-67
2020/12/31 02:42:28;;;;;;;38.37;23.20;;;3.80;93.20;;;;;;4404869;32;20251;-63
2020/12/31 02:45:01;;;;;;;39.50;23.17;;;3.80;93.20;;;;;;4400239;32;20238;-64
2020/12/31 02:47:35;;;;;;;26.40;15.10;;;3.80;93.30;;;;;;4406022;32;20249;-65
2020/12/31 02:50:03;;;;;;;22.90;11.93;;;3.80;93.30;;;;;;4406731;32;20211;-65
2020/12/31 02:52:29;;;;;;;15.63;10.53;;;3.90;93.40;;;;;;4405515;32;20223;-65
2020/12/31 02:54:56;;;;;;;16.70;9.90;;;3.90;93.40;;;;;;4391771;32;20219;-65
2020/12/31 02:57:23;;;;;;;17.60;11.10;;;3.90;93.30;;;;;;4392505;32;20177;-62
2020/12/31 02:59:52;;;;;;;16.73;10.97;;;3.90;93.40;;;;;;4407499;32;20175;-63
2020/12/31 03:02:19;;;;;;;16.83;11.93;;;3.90;93.50;;;;;;4401343;32;20223;-66
2020/12/31 03:04:49;;;;;;;19.70;12.77;;;3.90;93.40;;;;;;4399859;32;20168;-66
2020/12/31 03:07:15;;;;;;;21.60;13.43;;;3.90;93.40;;;;;;4399904;32;20208;-64
2020/12/31 03:09:48;;;;;;;20.90;14.97;;;3.90;93.50;;;;;;4406693;32;20198;-61
2020/12/31 03:12:25;;;;;;;23.10;16.33;;;4.00;93.50;;;;;;4403590;32;20170;-64
2020/12/31 03:14:55;;;;;;;24.10;15.10;;;4.00;93.50;;;;;;4407408;32;20284;-65
2020/12/31 03:17:27;;;;;;;27.97;18.07;;;3.90;93.60;;;;;;4406916;32;20179;-63
2020/12/31 03:19:57;;;;;;;31.03;20.20;;;4.00;93.60;;;;;;4406426;32;20172;-65
2020/12/31 03:22:26;;;;;;;31.50;19.13;;;4.00;93.60;;;;;;4394116;32;20163;-66
2020/12/31 03:24:55;;;;;;;30.07;18.93;;;4.00;93.60;;;;;;4405771;32;20212;-63
2020/12/31 03:27:30;;;;;;;28.37;19.47;;;4.00;93.60;;;;;;4404955;32;20182;-66
2020/12/31 03:30:00;;;;;;;24.60;17.10;;;4.00;93.70;;;;;;4397114;32;20468;-68
2020/12/31 03:32:28;;;;;;;36.80;19.80;;;4.10;93.70;;;;;;4406866;32;20211;-64
2020/12/31 03:34:55;;;;;;;26.40;17.90;;;4.00;93.60;;;;;;4405200;32;20529;-65
2020/12/31 03:37:26;;;;;;;25.20;18.20;;;4.10;93.60;;;;;;4394495;32;20225;-66
2020/12/31 03:39:53;;;;;;;30.07;18.87;;;4.10;93.70;;;;;;4401447;32;20183;-67
2020/12/31 03:42:22;;;;;;;28.00;18.70;;;4.10;93.70;;;;;;4406841;32;20641;-66
2020/12/31 03:44:52;;;;;;;29.83;19.43;;;4.10;93.70;;;;;;4400961;32;20167;-66
2020/12/31 03:47:26;;;;;;;29.43;19.90;;;4.10;93.80;;;;;;4393524;32;20148;-65
2020/12/31 03:49:57;;;;;;;29.77;18.50;;;4.10;93.70;;;;;;4398362;32;20535;-64
2020/12/31 03:52:28;;;;;;;27.60;19.07;;;4.10;93.70;;;;;;4404363;32;20160;-63
2020/12/31 03:55:03;;;;;;;29.70;19.97;;;4.10;93.80;;;;;;4404481;32;20161;-64
2020/12/31 03:57:33;;;;;;;26.37;18.23;;;4.10;93.70;;;;;;4394546;32;20578;-65
2020/12/31 03:59:59;;;;;;;28.40;18.27;;;4.10;93.60;;;;;;4406454;32;20221;-66
2020/12/31 04:02:28;;;;;;;36.40;21.60;;;4.10;93.70;;;;;;4404493;32;20178;-64
2020/12/31 04:05:00;;;;;;;30.90;20.73;;;4.10;93.70;;;;;;4403786;32;20188;-63
2020/12/31 04:07:32;;;;;;;29.60;18.87;;;4.00;93.70;;;;;;4403600;32;20156;-66
2020/12/31 04:10:05;;;;;;;30.07;19.47;;;4.10;93.70;;;;;;4398840;32;20271;-66
2020/12/31 04:12:35;;;;;;;29.47;18.70;;;4.10;93.60;;;;;;4391722;32;20255;-66
2020/12/31 04:15:02;;;;;;;27.40;19.23;;;4.10;93.60;;;;;;4400384;32;20195;-64
2020/12/31 04:17:34;;;;;;;27.33;19.33;;;4.00;93.60;;;;;;4396481;32;20240;-63
2020/12/31 04:20:11;;;;;;;32.83;21.40;;;4.00;93.70;;;;;;4404059;32;20200;-66
2020/12/31 04:22:37;;;;;;;26.23;19.37;;;4.00;93.80;;;;;;4404583;32;20213;-65
2020/12/31 04:25:03;;;;;;;29.83;19.93;;;4.00;93.80;;;;;;4402631;32;20220;-64
2020/12/31 04:27:34;;;;;;;29.30;19.57;;;4.00;93.80;;;;;;4397345;32;20273;-63
2020/12/31 04:30:06;;;;;;;31.33;20.87;;;4.00;93.80;;;;;;4404383;32;20230;-67
2020/12/31 04:32:33;;;;;;;33.37;21.43;;;4.00;93.70;;;;;;4405410;32;20599;-67
2020/12/31 04:35:08;;;;;;;28.47;19.87;;;4.00;93.70;;;;;;4404654;32;20238;-62
2020/12/31 04:37:43;;;;;;;32.60;19.47;;;4.00;93.70;;;;;;4394349;32;20227;-63
2020/12/31 04:40:15;;;;;;;32.93;21.07;;;4.00;93.70;;;;;;4396455;32;20161;-67
2020/12/31 04:42:41;;;;;;;37.57;23.03;;;3.90;93.70;;;;;;4394137;32;20168;-63
2020/12/31 04:45:09;;;;;;;41.33;22.73;;;3.80;93.80;;;;;;4394869;32;20250;-63
2020/12/31 04:47:48;;;;;;;31.37;20.73;;;3.90;94.00;;;;;;4394619;32;20211;-64
2020/12/31 04:50:19;;;;;;;38.03;22.03;;;3.90;94.00;;;;;;4399544;32;20172;-64
2020/12/31 04:52:47;;;;;;;32.33;19.77;;;4.00;94.00;;;;;;4404025;32;20156;-66
2020/12/31 04:55:14;;;;;;;31.33;20.70;;;4.00;94.00;;;;;;4401638;32;20212;-65
2020/12/31 04:57:40;;;;;;;34.40;21.67;;;4.00;94.00;;;;;;4394838;32;20307;-63
2020/12/31 05:00:11;;;;;;;34.37;22.20;;;4.00;93.90;;;;;;4403181;32;20505;-67
2020/12/31 05:02:40;;;;;;;34.03;22.60;;;4.00;93.90;;;;;;4401662;32;20238;-67
2020/12/31 05:05:08;;;;;;;39.37;25.43;;;4.00;93.90;;;;;;4403815;32;20187;-67
2020/12/31 05:07:34;;;;;;;32.93;20.30;;;4.10;93.90;;;;;;4404663;32;20166;-66
2020/12/31 05:10:09;;;;;;;34.87;22.97;;;4.10;93.80;;;;;;4397170;32;20571;-64
2020/12/31 05:12:38;;;;;;;43.63;23.87;;;4.10;93.80;;;;;;4405057;32;20155;-68
2020/12/31 05:15:06;;;;;;;34.30;23.27;;;4.10;93.70;;;;;;4405360;32;20188;-64
2020/12/31 05:17:34;;;;;;;33.27;22.13;;;4.00;93.70;;;;;;4399358;32;20193;-65
2020/12/31 05:20:17;;;;;;;41.43;23.17;;;3.90;93.80;;;;;;4404260;32;20186;-64
2020/12/31 05:22:45;;;;;;;39.57;24.00;;;4.00;93.90;;;;;;4396803;32;20192;-67
2020/12/31 05:25:16;;;;;;;36.83;22.77;;;4.00;93.80;;;;;;4398745;32;20541;-64
2020/12/31 05:27:46;;;;;;;38.47;23.83;;;3.90;93.80;;;;;;4403650;32;20156;-68
2020/12/31 05:30:17;;;;;;;34.33;22.73;;;3.90;93.80;;;;;;4403388;32;20164;-64
2020/12/31 05:32:54;;;;;;;41.60;22.40;;;3.90;93.80;;;;;;4396575;32;20164;-66
2020/12/31 05:35:27;;;;;;;37.47;23.57;;;3.90;93.90;;;;;;4400351;32;20487;-65
2020/12/31 05:37:58;;;;;;;34.00;22.20;;;3.90;93.90;;;;;;4405805;32;20599;-66
2020/12/31 05:40:24;;;;;;;36.93;23.10;;;3.90;94.00;;;;;;4403226;32;20184;-67
2020/12/31 05:43:04;;;;;;;35.80;21.67;;;3.90;94.00;;;;;;4402289;32;20211;-65
2020/12/31 05:45:34;;;;;;;31.63;20.60;;;3.90;94.00;;;;;;4403455;32;20168;-66
2020/12/31 05:48:08;;;;;;;33.80;22.00;;;3.90;94.00;;;;;;4406711;32;20497;-67
2020/12/31 05:50:41;;;;;;;40.80;23.40;;;3.90;93.90;;;;;;4407635;32;20176;-64
2020/12/31 05:56:42;;;;;;;34.10;21.13;;;3.90;93.90;;;;;;4356891;32;20172;-63
2020/12/31 05:59:26;;;;;;;40.53;22.40;;;3.90;93.90;;;;;;4356378;32;20696;-66
2020/12/31 06:01:57;;;;;;;35.70;22.23;;;3.80;93.90;;;;;;4352861;32;20165;-66
2020/12/31 06:04:51;;;;;;;35.00;22.40;;;3.80;93.90;;;;;;4355341;32;20215;-64
2020/12/31 06:07:32;;;;;;;37.83;22.83;;;3.80;93.90;;;;;;4358724;33;20264;-65
2020/12/31 06:10:05;;;;;;;40.20;24.50;;;3.80;94.00;;;;;;4359949;32;20239;-66
2020/12/31 06:12:49;;;;;;;34.03;22.20;;;3.80;94.10;;;;;;4359308;32;20540;-64
2020/12/31 06:15:23;;;;;;;33.03;20.50;;;3.90;94.10;;;;;;4353199;33;20235;-63
2020/12/31 06:17:56;;;;;;;32.73;21.17;;;3.90;93.90;;;;;;4358847;32;20224;-66
2020/12/31 06:20:26;;;;;;;38.60;22.93;;;3.90;93.90;;;;;;4353252;33;20232;-63
2020/12/31 06:23:04;;;;;;;32.40;21.50;;;3.90;94.00;;;;;;4356763;32;20234;-65
2020/12/31 06:25:36;;;;;;;33.70;22.73;;;4.00;94.00;;;;;;4357630;33;20225;-64
2020/12/31 06:28:07;;;;;;;41.53;24.27;;;4.00;93.90;;;;;;4360061;32;20187;-66
2020/12/31 06:30:35;;;;;;;32.93;21.83;;;4.00;93.80;;;;;;4351388;32;20178;-64
2020/12/31 06:33:06;;;;;;;32.73;20.83;;;3.90;93.70;;;;;;4369611;32;20174;-63
2020/12/31 06:35:34;;;;;;;35.87;22.50;;;3.80;93.70;;;;;;4408613;32;20206;-63
2020/12/31 06:38:01;;;;;;;33.37;20.60;;;3.80;93.70;;;;;;4404911;32;20182;-63
2020/12/31 06:40:30;;;;;;;33.37;21.73;;;3.90;93.80;;;;;;4402986;32;20186;-64
2020/12/31 06:43:09;;;;;;;41.07;23.60;;;3.90;93.80;;;;;;4400594;32;20637;-63
2020/12/31 06:45:40;;;;;;;33.77;22.27;;;3.80;93.90;;;;;;4405141;32;20161;-64
2020/12/31 06:48:36;;;;;;;37.17;21.67;;;3.80;94.00;;;;;;4391647;32;20499;-64
2020/12/31 06:51:07;;;;;;;37.30;21.30;;;3.90;94.00;;;;;;4392073;32;20168;-63
2020/12/31 06:53:37;;;;;;;31.97;21.70;;;3.90;94.00;;;;;;4390829;32;20175;-64
2020/12/31 06:56:07;;;;;;;42.73;26.13;;;3.90;94.00;;;;;;4394833;32;20518;-64
2020/12/31 06:58:41;;;;;;;33.53;21.73;;;3.90;93.90;;;;;;4391251;32;20172;-65
2020/12/31 07:01:24;;;;;;;38.23;22.87;;;3.90;93.90;;;;;;4392247;32;20339;-64
2020/12/31 07:03:57;;;;;;;38.87;22.27;;;3.90;94.00;;;;;;4394186;32;20220;-64
2020/12/31 07:06:33;;;;;;;30.53;21.00;;;4.00;94.00;;;;;;4391305;32;20206;-64
2020/12/31 07:09:32;;;;;;;33.10;21.27;;;4.00;93.90;;;;;;4402866;32;20215;-65
2020/12/31 07:12:03;;;;;;;33.50;21.57;;;4.00;93.90;;;;;;4355787;32;20204;-65
2020/12/31 07:14:32;;;;;;;35.63;21.77;;;4.00;93.80;;;;;;4357935;32;20183;-63
2020/12/31 07:17:06;;;;;;;33.37;20.93;;;4.00;93.80;;;;;;4356728;33;20234;-66
2020/12/31 07:19:40;;;;;;;38.00;21.73;;;4.10;93.80;;;;;;4357225;33;20691;-63
2020/12/31 07:22:27;;;;;;;37.27;21.23;;;4.00;93.70;;;;;;4355458;33;20675;-63
2020/12/31 07:25:03;;;;;;;37.07;23.10;;;3.90;93.70;;;;;;4351729;33;20173;-64
2020/12/31 07:27:35;;;;;;;35.70;22.67;;;3.90;93.70;;;;;;4355736;33;20188;-64
2020/12/31 07:30:17;;;;;;;37.13;22.40;;;3.90;93.80;;;;;;4356695;32;20204;-62
2020/12/31 07:33:16;;;;;;;37.27;23.33;;;3.80;93.80;;;;;;4354589;33;20168;-63
2020/12/31 07:35:53;;;;;;;37.03;23.73;;;3.80;93.70;;;;;;4357873;32;20236;-63
2020/12/31 07:38:22;;;;;;;35.33;22.80;;;3.80;93.80;;;;;;4356978;32;20163;-63
2020/12/31 07:40:52;;;;;;;35.67;22.83;;;3.80;93.80;;;;;;4358309;32;20207;-63
2020/12/31 07:43:26;;;;;;;40.57;24.23;;;3.80;93.80;;;;;;4356149;32;20227;-62
2020/12/31 07:45:53;;;;;;;37.90;24.37;;;3.80;94.00;;;;;;4354887;33;20205;-67
2020/12/31 07:48:27;;;;;;;39.20;22.77;;;3.80;94.10;;;;;;4371665;32;20174;-65
2020/12/31 07:51:00;;;;;;;32.83;20.87;;;3.80;94.00;;;;;;4404243;32;20156;-65
2020/12/31 07:53:38;;;;;;;34.90;22.03;;;3.90;94.10;;;;;;4404692;32;20182;-65
2020/12/31 07:56:12;;;;;;;37.43;22.30;;;3.90;94.10;;;;;;4404665;32;20182;-64
2020/12/31 07:58:45;;;;;;;30.50;20.27;;;3.90;94.10;;;;;;4402639;32;20533;-64
2020/12/31 08:01:12;;;;;;;30.07;19.93;;;4.00;94.10;;;;;;4399051;32;20636;-67
2020/12/31 08:03:41;;;;;;;32.17;20.20;;;4.00;94.10;;;;;;4404326;32;20630;-66
2020/12/31 08:06:12;;;;;;;32.03;19.50;;;4.10;94.10;;;;;;4406375;32;20651;-67
2020/12/31 08:08:43;;;;;;;34.17;21.30;;;4.10;94.00;;;;;;4404140;32;20210;-65
2020/12/31 08:11:29;;;;;;;38.70;20.70;;;4.10;93.80;;;;;;4405687;32;20190;-66
2020/12/31 08:14:07;;;;;;;33.00;20.80;;;4.10;93.80;;;;;;4391844;32;20205;-68
2020/12/31 08:16:38;;;;;;;33.50;20.80;;;4.10;93.80;;;;;;4401965;32;20213;-65
2020/12/31 08:19:07;;;;;;;31.70;19.77;;;4.20;93.80;;;;;;4403722;32;20152;-67
2020/12/31 08:21:41;;;;;;;31.33;18.67;;;4.20;93.60;;;;;;4405822;32;20168;-63
2020/12/31 08:24:16;;;;;;;29.23;18.70;;;4.20;93.50;;;;;;4399205;32;20593;-64
2020/12/31 08:26:56;;;;;;;29.83;18.83;;;4.20;93.30;;;;;;4404772;32;20161;-66
2020/12/31 08:29:30;;;;;;;27.10;17.93;;;4.20;93.30;;;;;;4405240;32;20277;-66
2020/12/31 08:32:06;;;;;;;25.17;17.03;;;4.20;93.30;;;;;;4402524;32;20576;-66
2020/12/31 08:34:37;;;;;;;25.00;16.67;;;4.30;93.30;;;;;;4405613;32;20193;-67
2020/12/31 08:37:11;;;;;;;28.63;18.57;;;4.30;93.30;;;;;;4404360;32;20602;-65
2020/12/31 08:39:48;;;;;;;25.30;16.63;;;4.30;93.30;;;;;;4404392;32;20171;-67
2020/12/31 08:42:29;;;;;;;25.40;16.77;;;4.30;93.10;;;;;;4404565;32;20205;-64
2020/12/31 08:47:38;;;;;;;21.67;15.43;;;4.30;93.40;;;;;;4399491;32;20242;-66
2020/12/31 08:50:19;;;;;;;25.53;16.50;;;4.30;93.10;;;;;;4399292;32;20204;-66
2020/12/31 08:52:48;;;;;;;25.97;15.53;;;4.30;93.00;;;;;;4404560;32;20469;-67
2020/12/31 08:55:16;;;;;;;20.90;14.37;;;4.20;93.10;;;;;;4405021;32;20521;-67
2020/12/31 08:58:12;;;;;;;22.17;13.57;;;4.30;93.10;;;;;;4403686;32;20195;-66
2020/12/31 09:00:39;;;;;;;26.17;13.90;;;4.30;93.00;;;;;;4400482;32;20227;-67
2020/12/31 09:03:18;;;;;;;19.23;13.00;;;4.30;93.00;;;;;;4392472;32;20243;-64
2020/12/31 09:05:56;;;;;;;24.33;13.10;;;4.30;92.90;;;;;;4395790;32;20178;-64
2020/12/31 09:08:30;;;;;;;20.97;12.70;;;4.30;92.90;;;;;;4409140;32;20159;-67
2020/12/31 09:11:14;;;;;;;20.43;13.20;;;4.30;92.80;;;;;;4405932;32;20182;-68
2020/12/31 09:13:49;;;;;;;18.20;11.97;;;4.30;92.80;;;;;;4400586;32;20155;-66
2020/12/31 09:16:29;;;;;;;18.53;12.20;;;4.30;92.90;;;;;;4409867;32;20587;-65
2020/12/31 09:19:16;;;;;;;17.40;11.77;;;4.40;92.80;;;;;;4408152;32;20160;-66
2020/12/31 09:21:50;;;;;;;19.30;12.27;;;4.40;92.60;;;;;;4406182;32;20643;-65
2020/12/31 09:24:32;;;;;;;20.30;12.17;;;4.40;92.50;;;;;;4405346;32;20578;-65
2020/12/31 09:27:32;;;;;;;20.63;11.37;;;4.30;92.50;;;;;;4404106;32;20188;-65
2020/12/31 09:30:13;;;;;;;16.30;10.83;;;4.30;92.50;;;;;;4401455;32;20213;-66
2020/12/31 09:32:46;;;;;;;20.73;11.63;;;4.30;92.50;;;;;;4406920;32;20155;-62
2020/12/31 09:35:14;;;;;;;16.33;11.37;;;4.30;92.70;;;;;;4406157;32;20165;-65
2020/12/31 09:37:57;;;;;;;17.93;11.03;;;4.40;92.60;;;;;;4404160;32;20233;-63
2020/12/31 09:40:28;;;;;;;17.20;11.17;;;4.40;92.50;;;;;;4405381;32;20152;-63
2020/12/31 09:42:56;;;;;;;22.33;14.50;;;4.40;92.60;;;;;;4402082;32;20199;-67
2020/12/31 09:45:30;;;;;;;18.77;12.07;;;4.40;92.50;;;;;;4397465;32;20170;-67
2020/12/31 09:47:59;;;;;;;14.80;10.83;;;4.40;92.50;;;;;;4400873;32;20202;-66
2020/12/31 09:50:49;;;;;;;18.93;10.37;;;4.40;92.50;;;;;;4402546;32;20220;-65
2020/12/31 09:53:15;;;;;;;14.90;9.80;;;4.40;92.50;;;;;;4401454;32;20149;-66
2020/12/31 09:55:44;;;;;;;17.07;10.23;;;4.50;92.20;;;;;;4404937;32;20195;-68
2020/12/31 09:58:18;;;;;;;17.97;10.33;;;4.40;92.30;;;;;;4402240;32;20231;-66
2020/12/31 10:00:47;;;;;;;18.37;10.97;;;4.40;92.40;;;;;;4400367;32;20189;-66
2020/12/31 10:03:14;;;;;;;15.53;11.00;;;4.50;92.20;;;;;;4392418;32;20190;-66
2020/12/31 10:05:44;;;;;;;16.63;10.90;;;4.50;92.20;;;;;;4397448;32;20449;-67
2020/12/31 10:08:12;;;;;;;18.07;10.97;;;4.50;92.20;;;;;;4400182;32;20660;-68
2020/12/31 10:10:43;;;;;;;15.63;11.13;;;4.50;92.10;;;;;;4404833;32;20624;-67
2020/12/31 10:13:10;;;;;;;16.73;10.53;;;4.50;92.10;;;;;;4404746;32;20167;-68
2020/12/31 10:15:37;;;;;;;19.17;10.73;;;4.50;92.20;;;;;;4399970;32;20530;-66
2020/12/31 10:18:07;;;;;;;21.87;11.47;;;4.60;92.10;;;;;;4395485;32;20215;-66
2020/12/31 10:20:37;;;;;;;19.03;11.43;;;4.50;92.10;;;;;;4403695;32;20179;-66
2020/12/31 10:23:05;;;;;;;19.47;10.33;;;4.50;91.90;;;;;;4401899;32;20662;-64
2020/12/31 10:25:33;;;;;;;16.53;11.23;;;4.30;92.10;;;;;;4404492;32;20221;-66
2020/12/31 10:28:08;;;;;;;20.77;12.27;;;4.30;92.20;;;;;;4404136;32;20158;-67
2020/12/31 10:30:41;;;;;;;21.20;11.47;;;4.20;92.50;;;;;;4405512;32;20157;-68
2020/12/31 10:33:11;;;;;;;21.87;11.30;;;4.20;92.70;;;;;;4399012;32;20171;-67
2020/12/31 10:35:38;;;;;;;20.70;11.13;;;4.20;92.60;;;;;;4401311;32;20214;-67
2020/12/31 10:38:05;;;;;;;25.47;13.77;;;4.30;92.70;;;;;;4404006;32;20278;-64
2020/12/31 10:40:31;;;;;;;24.33;15.00;;;4.30;92.70;;;;;;4393996;32;20148;-66
2020/12/31 10:43:03;;;;;;;32.40;25.47;;;4.30;92.60;;;;;;4393428;32;20165;-64
2020/12/31 10:45:34;;;;;;;31.87;17.73;;;4.30;92.60;;;;;;4401593;32;20274;-66
2020/12/31 10:48:20;;;;;;;32.80;24.00;;;4.30;92.50;;;;;;4395680;32;20213;-66
2020/12/31 10:50:48;;;;;;;30.97;23.93;;;4.30;92.50;;;;;;4395351;32;20179;-68
2020/12/31 10:53:15;;;;;;;22.90;17.80;;;4.30;92.50;;;;;;4397234;32;20216;-67
2020/12/31 10:55:44;;;;;;;25.60;16.43;;;4.30;92.60;;;;;;4398877;32;20250;-65
2020/12/31 10:58:17;;;;;;;30.50;17.70;;;4.30;92.60;;;;;;4398109;32;20251;-68
2020/12/31 11:00:53;;;;;;;32.33;23.27;;;4.30;92.50;;;;;;4399711;32;20168;-65
2020/12/31 11:03:26;;;;;;;22.77;15.33;;;4.40;92.40;;;;;;4408224;32;20152;-68
2020/12/31 11:05:52;;;;;;;24.20;15.70;;;4.50;92.50;;;;;;4408142;32;20178;-67
2020/12/31 11:08:25;;;;;;;31.67;20.03;;;4.40;92.50;;;;;;4407552;32;20217;-65
2020/12/31 11:11:00;;;;;;;42.33;32.60;;;4.50;92.50;;;;;;4400616;32;20152;-66
2020/12/31 11:13:32;;;;;;;37.27;29.37;;;4.50;92.40;;;;;;4393776;32;20162;-65
2020/12/31 11:16:01;;;;;;;30.03;21.13;;;4.60;92.50;;;;;;4401194;32;20558;-64
2020/12/31 11:18:33;;;;;;;34.97;19.67;;;4.70;92.40;;;;;;4403474;32;20160;-68
2020/12/31 11:20:59;;;;;;;35.17;19.90;;;4.80;92.30;;;;;;4399476;32;20223;-65
2020/12/31 11:23:45;;;;;;;32.93;18.30;;;4.80;91.90;;;;;;4399980;32;20174;-66
2020/12/31 11:26:15;;;;;;;79.00;51.07;;;4.90;92.00;;;;;;4399178;32;20171;-68
2020/12/31 11:28:59;;;;;;;132.63;85.53;;;4.80;91.80;;;;;;4397495;32;20149;-65
2020/12/31 11:31:30;;;;;;;54.77;33.17;;;4.80;91.70;;;;;;4402427;32;20614;-68
2020/12/31 11:34:02;;;;;;;75.17;47.70;;;4.90;91.70;;;;;;4402844;32;20179;-68
2020/12/31 11:36:29;;;;;;;46.63;25.03;;;5.00;91.70;;;;;;4398501;32;20179;-67
2020/12/31 11:39:06;;;;;;;49.93;27.73;;;5.00;91.50;;;;;;4394567;32;20159;-68
2020/12/31 11:41:33;;;;;;;42.30;22.53;;;5.10;91.50;;;;;;4395097;32;20626;-65
2020/12/31 11:44:03;;;;;;;39.77;22.30;;;5.10;91.40;;;;;;4399137;32;20256;-65
2020/12/31 11:46:31;;;;;;;41.00;23.80;;;5.30;91.40;;;;;;4398156;32;20149;-65
2020/12/31 11:49:03;;;;;;;34.10;20.17;;;5.50;91.10;;;;;;4398807;32;20163;-67
2020/12/31 11:51:33;;;;;;;32.70;19.07;;;5.60;90.60;;;;;;4402908;32;20237;-68
2020/12/31 11:54:07;;;;;;;41.97;23.50;;;5.60;90.50;;;;;;4399534;32;20530;-69
2020/12/31 11:56:38;;;;;;;34.63;20.13;;;5.60;90.40;;;;;;4398956;32;20264;-65
2020/12/31 11:59:12;;;;;;;35.77;19.70;;;5.50;90.30;;;;;;4399243;32;20189;-69
2020/12/31 12:01:43;;;;;;;103.83;55.93;;;5.40;90.30;;;;;;4397058;32;20227;-67
2020/12/31 12:04:20;;;;;;;108.20;61.30;;;5.40;90.50;;;;;;4400199;32;20601;-65
2020/12/31 12:07:15;;;;;;;37.47;22.27;;;5.30;91.00;;;;;;4402884;32;20201;-66
2020/12/31 12:09:48;;;;;;;127.37;69.53;;;5.30;91.10;;;;;;4335301;33;20177;-66
2020/12/31 12:12:19;;;;;;;61.10;40.40;;;5.50;90.90;;;;;;4338444;33;20221;-65
2020/12/31 12:14:54;;;;;;;39.80;23.17;;;5.50;90.30;;;;;;4337802;33;20177;-70
2020/12/31 12:17:23;;;;;;;38.47;22.93;;;5.40;90.30;;;;;;4331154;33;20182;-65
2020/12/31 12:20:04;;;;;;;31.00;19.40;;;5.40;90.70;;;;;;4340505;33;20269;-66
2020/12/31 12:22:33;;;;;;;31.37;18.73;;;5.40;90.80;;;;;;4339577;33;20220;-66
2020/12/31 12:25:10;;;;;;;37.43;19.57;;;5.60;90.70;;;;;;4336818;33;20720;-66
2020/12/31 12:27:36;;;;;;;39.13;21.83;;;5.60;90.30;;;;;;4336128;33;20160;-66
2020/12/31 12:30:11;;;;;;;45.47;27.40;;;5.60;90.20;;;;;;4329811;33;22023;-66
2020/12/31 12:32:39;;;;;;;36.20;22.83;;;5.60;90.40;;;;;;4328439;33;20165;-67
2020/12/31 12:35:09;;;;;;;35.80;22.33;;;5.70;90.50;;;;;;4331849;33;20165;-65
2020/12/31 12:37:36;;;;;;;35.83;21.40;;;5.70;90.10;;;;;;4335169;33;20153;-67
2020/12/31 12:40:08;;;;;;;39.37;21.97;;;5.70;90.00;;;;;;4341241;33;20224;-67
2020/12/31 12:42:35;;;;;;;48.23;35.30;;;5.70;90.20;;;;;;4339131;32;20522;-66
2020/12/31 12:45:07;;;;;;;38.63;24.53;;;5.70;90.20;;;;;;4345129;32;20646;-65
2020/12/31 12:47:36;;;;;;;32.60;20.70;;;5.70;90.10;;;;;;4401325;32;20183;-67
2020/12/31 12:50:11;;;;;;;34.77;21.10;;;5.70;90.00;;;;;;4406015;32;20177;-66
2020/12/31 12:52:49;;;;;;;33.17;19.73;;;5.70;90.00;;;;;;4401759;32;20336;-67
2020/12/31 12:55:17;;;;;;;32.63;19.77;;;5.70;89.20;;;;;;4403016;32;20550;-66
2020/12/31 12:57:44;;;;;;;38.07;21.33;;;5.50;89.80;;;;;;4399096;32;20199;-66
2020/12/31 13:00:34;;;;;;;36.43;21.97;;;5.50;90.00;;;;;;4402479;32;20155;-65
2020/12/31 13:03:03;;;;;;;37.07;21.23;;;5.50;90.20;;;;;;4340646;33;20233;-66
2020/12/31 13:05:48;;;;;;;52.90;32.37;;;5.60;90.30;;;;;;4339335;33;20700;-66
2020/12/31 13:08:17;;;;;;;36.30;21.10;;;5.60;90.30;;;;;;4341429;33;20221;-69